createdAt,value
2017-02-09T00:00:50.616Z,1024.16
2017-02-09T00:02:02.227Z,1024.17
2017-02-09T00:03:13.831Z,1024.13
2017-02-09T00:04:25.235Z,1024.14
2017-02-09T00:05:36.738Z,1024.14
2017-02-09T00:06:48.127Z,1024.11
2017-02-09T00:07:59.530Z,1024.06
2017-02-09T00:09:10.929Z,1024.06
2017-02-09T00:10:22.327Z,1024.08
2017-02-09T00:11:33.730Z,1024.06
2017-02-09T00:12:45.135Z,1024.11
2017-02-09T00:13:56.540Z,1024.14
2017-02-09T00:15:08.197Z,1024.11
2017-02-09T00:16:19.806Z,1024.16
2017-02-09T00:17:31.203Z,1024.15
2017-02-09T00:18:42.608Z,1024.13
2017-02-09T00:19:54.000Z,1024.08
2017-02-09T00:21:05.418Z,1024.07
2017-02-09T00:22:16.822Z,1024.1
2017-02-09T00:23:28.444Z,1024.1
2017-02-09T00:24:39.846Z,1024.11
2017-02-09T00:25:51.340Z,1024.1
2017-02-09T00:27:02.752Z,1024.16
2017-02-09T00:28:14.163Z,1024.09
2017-02-09T00:29:25.566Z,1024.1
2017-02-09T00:30:36.968Z,1024.1
2017-02-09T00:31:48.373Z,1024.13
2017-02-09T00:32:59.976Z,1024.16
2017-02-09T00:34:11.385Z,1024.13
2017-02-09T00:35:22.985Z,1024.15
2017-02-09T00:36:34.434Z,1024.08
2017-02-09T00:37:45.839Z,1024.11
2017-02-09T00:38:57.238Z,1024.12
2017-02-09T00:40:08.643Z,1024.1
2017-02-09T00:41:20.049Z,1024.1
2017-02-09T00:42:31.457Z,1024.06
2017-02-09T00:43:42.855Z,1024.08
2017-02-09T00:44:54.260Z,1024.09
2017-02-09T00:46:05.667Z,1024.1
2017-02-09T00:47:17.078Z,1024.13
2017-02-09T00:48:28.524Z,1024.12
2017-02-09T00:49:40.122Z,1024.13
2017-02-09T00:50:51.523Z,1024.16
2017-02-09T00:52:02.925Z,1024.15
2017-02-09T00:53:14.329Z,1024.14
2017-02-09T00:54:25.963Z,1024.15
2017-02-09T00:55:37.367Z,1024.16
2017-02-09T00:56:48.775Z,1024.16
2017-02-09T00:58:00.234Z,1024.19
2017-02-09T00:59:11.837Z,1024.24
2017-02-09T01:00:23.647Z,1024.23
2017-02-09T01:01:35.243Z,1024.26
2017-02-09T01:02:46.647Z,1024.26
2017-02-09T01:03:58.459Z,1024.29
2017-02-09T01:05:09.857Z,1024.27
2017-02-09T01:06:21.263Z,1024.28
2017-02-09T01:07:32.666Z,1024.25
2017-02-09T01:08:44.125Z,1024.29
2017-02-09T01:09:55.523Z,1024.29
2017-02-09T01:11:06.921Z,1024.25
2017-02-09T01:12:18.324Z,1024.27
2017-02-09T01:13:29.723Z,1024.29
2017-02-09T01:14:41.129Z,1024.26
2017-02-09T01:15:52.533Z,1024.24
2017-02-09T01:17:04.131Z,1024.25
2017-02-09T01:18:15.531Z,1024.24
2017-02-09T01:19:26.990Z,1024.27
2017-02-09T01:20:38.388Z,1024.24
2017-02-09T01:21:49.790Z,1024.22
2017-02-09T01:23:01.205Z,1024.26
2017-02-09T01:24:12.609Z,1024.28
2017-02-09T01:25:23.993Z,1024.28
2017-02-09T01:26:35.400Z,1024.28
2017-02-09T01:27:46.805Z,1024.27
2017-02-09T01:28:58.411Z,1024.27
2017-02-09T01:30:09.860Z,1024.25
2017-02-09T01:31:21.266Z,1024.3
2017-02-09T01:32:32.668Z,1024.27
2017-02-09T01:33:44.062Z,1024.34
2017-02-09T01:34:55.463Z,1024.33
2017-02-09T01:36:06.863Z,1024.27
2017-02-09T01:37:18.271Z,1024.3
2017-02-09T01:38:29.671Z,1024.32
2017-02-09T01:39:41.069Z,1024.35
2017-02-09T01:40:52.463Z,1024.39
2017-02-09T01:42:03.912Z,1024.37
2017-02-09T01:43:15.314Z,1024.37
2017-02-09T01:44:26.714Z,1024.37
2017-02-09T01:45:38.118Z,1024.33
2017-02-09T01:46:49.528Z,1024.35
2017-02-09T01:48:00.919Z,1024.35
2017-02-09T01:49:12.321Z,1024.36
2017-02-09T01:50:23.724Z,1024.28
2017-02-09T01:51:35.181Z,1024.29
2017-02-09T01:52:46.795Z,1024.36
2017-02-09T01:53:58.203Z,1024.31
2017-02-09T01:55:09.607Z,1024.33
2017-02-09T01:56:21.015Z,1024.34
2017-02-09T01:57:32.419Z,1024.35
2017-02-09T01:58:43.828Z,1024.35
2017-02-09T01:59:55.431Z,1024.38
2017-02-09T02:01:06.827Z,1024.35
2017-02-09T02:02:18.317Z,1024.36
2017-02-09T02:03:29.718Z,1024.34
2017-02-09T02:04:41.118Z,1024.32
2017-02-09T02:05:52.519Z,1024.37
2017-02-09T02:07:03.922Z,1024.34
2017-02-09T02:08:15.326Z,1024.38
2017-02-09T02:09:26.728Z,1024.36
2017-02-09T02:10:38.139Z,1024.37
2017-02-09T02:11:49.543Z,1024.33
2017-02-09T02:13:01.002Z,1024.3
2017-02-09T02:14:12.603Z,1024.32
2017-02-09T02:15:24.005Z,1024.34
2017-02-09T02:16:35.608Z,1024.28
2017-02-09T02:17:47.014Z,1024.31
2017-02-09T02:18:58.421Z,1024.29
2017-02-09T02:20:09.830Z,1024.33
2017-02-09T02:21:21.235Z,1024.3
2017-02-09T02:22:32.664Z,1024.34
2017-02-09T02:23:44.100Z,1024.32
2017-02-09T02:24:55.500Z,1024.33
2017-02-09T02:26:06.899Z,1024.35
2017-02-09T02:27:18.305Z,1024.34
2017-02-09T02:28:29.699Z,1024.37
2017-02-09T02:29:41.097Z,1024.39
2017-02-09T02:30:52.700Z,1024.34
2017-02-09T02:32:04.102Z,1024.39
2017-02-09T02:33:15.712Z,1024.39
2017-02-09T02:34:27.104Z,1024.37
2017-02-09T02:35:38.559Z,1024.43
2017-02-09T02:36:49.970Z,1024.38
2017-02-09T02:38:01.382Z,1024.36
2017-02-09T02:39:12.790Z,1024.38
2017-02-09T02:40:24.788Z,1024.45
2017-02-09T02:41:36.392Z,1024.4
2017-02-09T02:42:47.984Z,1024.41
2017-02-09T02:43:59.387Z,1024.41
2017-02-09T02:45:10.839Z,1024.45
2017-02-09T02:46:22.245Z,1024.43
2017-02-09T02:47:33.651Z,1024.45
2017-02-09T02:48:45.045Z,1024.45
2017-02-09T02:49:56.680Z,1024.46
2017-02-09T02:51:08.076Z,1024.46
2017-02-09T02:52:19.478Z,1024.47
2017-02-09T02:53:30.872Z,1024.39
2017-02-09T02:54:42.480Z,1024.43
2017-02-09T02:55:53.921Z,1024.42
2017-02-09T02:57:05.317Z,1024.44
2017-02-09T02:58:16.713Z,1024.43
2017-02-09T02:59:28.118Z,1024.45
2017-02-09T03:00:39.523Z,1024.47
2017-02-09T03:01:50.926Z,1024.5
2017-02-09T03:03:02.335Z,1024.51
2017-02-09T03:04:13.931Z,1024.5
2017-02-09T03:05:25.365Z,1024.52
2017-02-09T03:06:36.815Z,1024.49
2017-02-09T03:07:48.254Z,1024.46
2017-02-09T03:08:59.669Z,1024.49
2017-02-09T03:10:11.272Z,1024.5
2017-02-09T03:11:22.673Z,1024.44
2017-02-09T03:12:34.068Z,1024.52
2017-02-09T03:13:45.469Z,1024.51
2017-02-09T03:14:56.861Z,1024.53
2017-02-09T03:16:08.292Z,1024.52
2017-02-09T03:17:19.693Z,1024.52
2017-02-09T03:18:31.099Z,1024.46
2017-02-09T03:19:42.500Z,1024.49
2017-02-09T03:20:54.098Z,1024.46
2017-02-09T03:22:05.505Z,1024.46
2017-02-09T03:23:16.905Z,1024.45
2017-02-09T03:24:28.308Z,1024.46
2017-02-09T03:25:39.712Z,1024.48
2017-02-09T03:26:51.106Z,1024.42
2017-02-09T03:28:02.507Z,1024.48
2017-02-09T03:29:14.000Z,1024.51
2017-02-09T03:30:25.401Z,1024.49
2017-02-09T03:31:36.808Z,1024.44
2017-02-09T03:32:48.420Z,1024.47
2017-02-09T03:33:59.825Z,1024.47
2017-02-09T03:35:11.232Z,1024.49
2017-02-09T03:36:22.637Z,1024.55
2017-02-09T03:37:34.036Z,1024.51
2017-02-09T03:38:45.488Z,1024.48
2017-02-09T03:39:56.885Z,1024.51
2017-02-09T03:41:08.287Z,1024.49
2017-02-09T03:42:19.686Z,1024.48
2017-02-09T03:43:31.081Z,1024.51
2017-02-09T03:44:42.483Z,1024.54
2017-02-09T03:45:53.881Z,1024.51
2017-02-09T03:47:05.286Z,1024.53
2017-02-09T03:48:16.692Z,1024.57
2017-02-09T03:49:28.140Z,1024.52
2017-02-09T03:50:39.545Z,1024.53
2017-02-09T03:51:50.946Z,1024.49
2017-02-09T03:53:02.551Z,1024.54
2017-02-09T03:54:13.960Z,1024.5
2017-02-09T03:55:25.410Z,1024.52
2017-02-09T03:56:36.807Z,1024.53
2017-02-09T03:57:48.208Z,1024.5
2017-02-09T03:58:59.620Z,1024.49
2017-02-09T04:00:11.070Z,1024.48
2017-02-09T04:01:22.479Z,1024.47
2017-02-09T04:02:33.882Z,1024.5
2017-02-09T04:03:45.296Z,1024.5
2017-02-09T04:04:56.900Z,1024.54
2017-02-09T04:06:08.497Z,1024.58
2017-02-09T04:07:19.896Z,1024.55
2017-02-09T04:08:31.296Z,1024.54
2017-02-09T04:09:42.906Z,1024.55
2017-02-09T04:10:54.511Z,1024.6
2017-02-09T04:12:06.110Z,1024.56
2017-02-09T04:13:17.504Z,1024.56
2017-02-09T04:14:29.111Z,1024.6
2017-02-09T04:15:40.521Z,1024.57
2017-02-09T04:16:51.977Z,1024.59
2017-02-09T04:18:03.583Z,1024.62
2017-02-09T04:19:14.985Z,1024.57
2017-02-09T04:20:26.382Z,1024.58
2017-02-09T04:21:37.983Z,1024.58
2017-02-09T04:22:49.394Z,1024.65
2017-02-09T04:24:00.797Z,1024.59
2017-02-09T04:25:12.196Z,1024.55
2017-02-09T04:26:23.640Z,1024.57
2017-02-09T04:27:35.040Z,1024.55
2017-02-09T04:28:46.440Z,1024.57
2017-02-09T04:29:57.842Z,1024.55
2017-02-09T04:31:09.251Z,1024.54
2017-02-09T04:32:20.642Z,1024.52
2017-02-09T04:33:32.032Z,1024.55
2017-02-09T04:34:43.638Z,1024.56
2017-02-09T04:35:55.031Z,1024.59
2017-02-09T04:37:06.490Z,1024.55
2017-02-09T04:38:18.094Z,1024.52
2017-02-09T04:39:29.493Z,1024.59
2017-02-09T04:40:40.892Z,1024.53
2017-02-09T04:41:52.294Z,1024.56
2017-02-09T04:43:03.883Z,1024.58
2017-02-09T04:44:15.292Z,1024.63
2017-02-09T04:45:26.687Z,1024.61
2017-02-09T04:46:38.098Z,1024.57
2017-02-09T04:47:49.550Z,1024.7
2017-02-09T04:49:01.160Z,1024.65
2017-02-09T04:50:12.552Z,1024.63
2017-02-09T04:51:23.953Z,1024.62
2017-02-09T04:52:35.551Z,1024.64
2017-02-09T04:53:46.941Z,1024.68
2017-02-09T04:54:58.350Z,1024.69
2017-02-09T04:56:09.758Z,1024.7
2017-02-09T04:57:21.167Z,1024.72
2017-02-09T04:58:32.569Z,1024.73
2017-02-09T04:59:43.962Z,1024.73
2017-02-09T05:00:55.361Z,1024.77
2017-02-09T05:02:06.969Z,1024.69
2017-02-09T05:03:18.571Z,1024.71
2017-02-09T05:04:30.022Z,1024.72
2017-02-09T05:05:41.624Z,1024.7
2017-02-09T05:06:53.232Z,1024.7
2017-02-09T05:08:04.641Z,1024.68
2017-02-09T05:09:16.051Z,1024.72
2017-02-09T05:10:27.451Z,1024.64
2017-02-09T05:11:38.857Z,1024.61
2017-02-09T05:12:50.255Z,1024.63
2017-02-09T05:14:01.703Z,1024.6
2017-02-09T05:15:13.107Z,1024.64
2017-02-09T05:16:24.507Z,1024.64
2017-02-09T05:17:35.909Z,1024.62
2017-02-09T05:18:47.309Z,1024.64
2017-02-09T05:19:58.706Z,1024.62
2017-02-09T05:21:10.106Z,1024.62
2017-02-09T05:22:21.508Z,1024.67
2017-02-09T05:23:32.910Z,1024.7
2017-02-09T05:24:44.364Z,1024.71
2017-02-09T05:25:55.763Z,1024.73
2017-02-09T05:27:07.164Z,1024.79
2017-02-09T05:28:18.572Z,1024.79
2017-02-09T05:29:29.972Z,1024.78
2017-02-09T05:30:41.576Z,1024.76
2017-02-09T05:31:52.979Z,1024.81
2017-02-09T05:33:04.379Z,1024.78
2017-02-09T05:34:15.775Z,1024.78
2017-02-09T05:35:27.226Z,1024.86
2017-02-09T05:36:38.638Z,1024.76
2017-02-09T05:37:50.245Z,1024.77
2017-02-09T05:39:01.651Z,1024.83
2017-02-09T05:40:13.058Z,1024.74
2017-02-09T05:41:24.465Z,1024.83
2017-02-09T05:42:36.073Z,1024.76
2017-02-09T05:43:47.476Z,1024.78
2017-02-09T05:44:58.882Z,1024.76
2017-02-09T05:46:10.341Z,1024.75
2017-02-09T05:47:21.745Z,1024.77
2017-02-09T05:48:33.147Z,1024.74
2017-02-09T05:49:44.563Z,1024.74
2017-02-09T05:50:55.970Z,1024.72
2017-02-09T05:52:07.378Z,1024.72
2017-02-09T05:53:18.782Z,1024.69
2017-02-09T05:54:30.391Z,1024.74
2017-02-09T05:55:41.802Z,1024.72
2017-02-09T05:56:53.405Z,1024.77
2017-02-09T05:58:04.809Z,1024.75
2017-02-09T05:59:16.213Z,1024.74
2017-02-09T06:00:27.810Z,1024.77
2017-02-09T06:01:39.212Z,1024.77
2017-02-09T06:02:50.815Z,1024.81
2017-02-09T06:04:02.269Z,1024.79
2017-02-09T06:05:13.681Z,1024.81
2017-02-09T06:06:25.081Z,1024.81
2017-02-09T06:07:36.485Z,1024.76
2017-02-09T06:08:47.885Z,1024.76
2017-02-09T06:09:59.489Z,1024.81
2017-02-09T06:11:11.299Z,1024.82
2017-02-09T06:12:22.706Z,1024.79
2017-02-09T06:13:34.162Z,1024.83
2017-02-09T06:14:45.566Z,1024.82
2017-02-09T06:15:56.972Z,1024.84
2017-02-09T06:17:08.365Z,1024.81
2017-02-09T06:18:19.772Z,1024.84
2017-02-09T06:19:31.176Z,1024.86
2017-02-09T06:20:42.568Z,1024.83
2017-02-09T06:21:53.960Z,1024.86
2017-02-09T06:23:05.371Z,1024.87
2017-02-09T06:24:16.824Z,1024.9
2017-02-09T06:25:28.223Z,1024.88
2017-02-09T06:26:39.620Z,1024.91
2017-02-09T06:27:51.020Z,1024.91
2017-02-09T06:29:02.424Z,1024.92
2017-02-09T06:30:13.874Z,1024.92
2017-02-09T06:31:25.269Z,1024.93
2017-02-09T06:32:36.659Z,1024.86
2017-02-09T06:33:48.068Z,1024.88
2017-02-09T06:34:59.520Z,1024.89
2017-02-09T06:36:11.125Z,1024.88
2017-02-09T06:37:22.729Z,1024.92
2017-02-09T06:38:34.136Z,1024.96
2017-02-09T06:39:45.575Z,1024.94
2017-02-09T06:40:57.029Z,1024.97
2017-02-09T06:42:08.436Z,1025
2017-02-09T06:43:20.039Z,1024.96
2017-02-09T06:44:31.444Z,1024.97
2017-02-09T06:45:42.848Z,1024.98
2017-02-09T06:46:54.250Z,1024.96
2017-02-09T06:48:05.654Z,1024.97
2017-02-09T06:49:17.065Z,1024.94
2017-02-09T06:50:28.469Z,1024.96
2017-02-09T06:51:40.070Z,1024.95
2017-02-09T06:52:51.521Z,1025
2017-02-09T06:54:02.931Z,1025
2017-02-09T06:55:14.328Z,1025.04
2017-02-09T06:56:25.730Z,1025.04
2017-02-09T06:57:37.136Z,1025.07
2017-02-09T06:58:48.537Z,1025.05
2017-02-09T06:59:59.937Z,1025.02
2017-02-09T07:01:11.343Z,1025.02
2017-02-09T07:02:22.785Z,1025.08
2017-02-09T07:03:34.188Z,1025.06
2017-02-09T07:04:45.578Z,1025.07
2017-02-09T07:05:56.985Z,1025.09
2017-02-09T07:07:08.392Z,1025.06
2017-02-09T07:08:19.796Z,1025.05
2017-02-09T07:09:31.201Z,1025.04
2017-02-09T07:10:42.609Z,1025.08
2017-02-09T07:11:54.008Z,1025.09
2017-02-09T07:13:05.461Z,1025.05
2017-02-09T07:14:16.865Z,1025.11
2017-02-09T07:15:28.478Z,1025.12
2017-02-09T07:16:40.072Z,1025.12
2017-02-09T07:17:51.475Z,1025.06
2017-02-09T07:19:02.873Z,1025.06
2017-02-09T07:20:14.272Z,1025.11
2017-02-09T07:21:25.667Z,1025.06
2017-02-09T07:22:37.070Z,1025.09
2017-02-09T07:23:48.518Z,1025.1
2017-02-09T07:25:00.117Z,1025.09
2017-02-09T07:26:11.515Z,1025.08
2017-02-09T07:27:22.914Z,1025.05
2017-02-09T07:28:34.313Z,1025.1
2017-02-09T07:29:45.724Z,1025.11
2017-02-09T07:30:57.324Z,1025.08
2017-02-09T07:32:08.719Z,1025.12
2017-02-09T07:33:20.120Z,1025.11
2017-02-09T07:34:31.567Z,1025.07
2017-02-09T07:35:43.174Z,1025.07
2017-02-09T07:36:54.569Z,1025.07
2017-02-09T07:38:05.979Z,1025.11
2017-02-09T07:39:17.375Z,1025.08
2017-02-09T07:40:28.783Z,1025.09
2017-02-09T07:41:40.192Z,1025.06
2017-02-09T07:42:51.604Z,1025.13
2017-02-09T07:44:03.003Z,1025.09
2017-02-09T07:45:14.605Z,1025.08
2017-02-09T07:46:26.058Z,1025.07
2017-02-09T07:47:37.455Z,1025.05
2017-02-09T07:48:48.859Z,1025.07
2017-02-09T07:50:00.261Z,1025.13
2017-02-09T07:51:11.666Z,1025.11
2017-02-09T07:52:23.066Z,1025.11
2017-02-09T07:53:34.470Z,1025.12
2017-02-09T07:54:45.870Z,1025.12
2017-02-09T07:55:57.330Z,1025.11
2017-02-09T07:57:08.730Z,1025.13
2017-02-09T07:58:20.131Z,1025.1
2017-02-09T07:59:31.532Z,1025.16
2017-02-09T08:00:42.945Z,1025.15
2017-02-09T08:01:54.344Z,1025.2
2017-02-09T08:03:05.743Z,1025.2
2017-02-09T08:04:17.348Z,1025.18
2017-02-09T08:05:28.947Z,1025.17
2017-02-09T08:06:40.396Z,1025.21
2017-02-09T08:07:51.816Z,1025.21
2017-02-09T08:09:03.219Z,1025.2
2017-02-09T08:10:14.621Z,1025.23
2017-02-09T08:11:26.030Z,1025.25
2017-02-09T08:12:37.439Z,1025.22
2017-02-09T08:13:48.845Z,1025.19
2017-02-09T08:15:00.245Z,1025.2
2017-02-09T08:16:11.853Z,1025.22
2017-02-09T08:17:23.305Z,1025.25
2017-02-09T08:18:34.707Z,1025.24
2017-02-09T08:19:46.120Z,1025.19
2017-02-09T08:20:57.521Z,1025.22
2017-02-09T08:22:08.934Z,1025.21
2017-02-09T08:23:20.388Z,1025.25
2017-02-09T08:24:31.797Z,1025.2
2017-02-09T08:25:43.205Z,1025.22
2017-02-09T08:26:54.604Z,1025.25
2017-02-09T08:28:06.017Z,1025.26
2017-02-09T08:29:17.423Z,1025.22
2017-02-09T08:30:28.828Z,1025.28
2017-02-09T08:31:40.230Z,1025.26
2017-02-09T08:32:51.827Z,1025.3
2017-02-09T08:34:03.437Z,1025.29
2017-02-09T08:35:14.885Z,1025.29
2017-02-09T08:36:26.486Z,1025.34
2017-02-09T08:37:38.091Z,1025.27
2017-02-09T08:38:49.689Z,1025.29
2017-02-09T08:40:01.295Z,1025.3
2017-02-09T08:41:12.692Z,1025.24
2017-02-09T08:42:24.098Z,1025.25
2017-02-09T08:43:35.495Z,1025.25
2017-02-09T08:44:46.953Z,1025.25
2017-02-09T08:45:58.353Z,1025.22
2017-02-09T08:47:09.951Z,1025.2
2017-02-09T08:48:21.357Z,1025.2
2017-02-09T08:49:32.757Z,1025.21
2017-02-09T08:50:44.563Z,1025.18
2017-02-09T08:51:55.972Z,1025.2
2017-02-09T08:53:07.374Z,1025.17
2017-02-09T08:54:18.778Z,1025.14
2017-02-09T08:55:30.259Z,1025.09
2017-02-09T08:56:41.662Z,1025.11
2017-02-09T08:57:53.074Z,1025.19
2017-02-09T08:59:04.683Z,1025.13
2017-02-09T09:00:16.286Z,1025.12
2017-02-09T09:01:27.694Z,1025.11
2017-02-09T09:02:39.107Z,1025.13
2017-02-09T09:03:50.509Z,1025.14
2017-02-09T09:05:01.916Z,1025.19
2017-02-09T09:06:13.376Z,1025.09
2017-02-09T09:07:24.774Z,1025.11
2017-02-09T09:08:36.388Z,1025.08
2017-02-09T09:09:47.787Z,1025.09
2017-02-09T09:10:59.387Z,1025.06
2017-02-09T09:12:10.803Z,1025.11
2017-02-09T09:13:22.403Z,1025.12
2017-02-09T09:14:34.009Z,1025.1
2017-02-09T09:15:45.411Z,1025.09
2017-02-09T09:16:57.024Z,1025.03
2017-02-09T09:18:08.500Z,1025.08
2017-02-09T09:19:19.900Z,1025.06
2017-02-09T09:20:31.302Z,1025.06
2017-02-09T09:21:42.706Z,1025.07
2017-02-09T09:22:54.126Z,1025.09
2017-02-09T09:24:05.525Z,1025.05
2017-02-09T09:25:16.926Z,1025.08
2017-02-09T09:26:28.324Z,1025.05
2017-02-09T09:27:39.811Z,1025
2017-02-09T09:28:51.218Z,1025.02
2017-02-09T09:30:02.623Z,1025.03
2017-02-09T09:31:14.028Z,1025.02
2017-02-09T09:32:25.633Z,1025.03
2017-02-09T09:33:37.044Z,1025.04
2017-02-09T09:34:48.450Z,1025.07
2017-02-09T09:35:59.849Z,1025.06
2017-02-09T09:37:11.449Z,1025.03
2017-02-09T09:38:22.909Z,1025.07
2017-02-09T09:39:34.317Z,1025
2017-02-09T09:40:45.720Z,1025.01
2017-02-09T09:41:57.115Z,1025.04
2017-02-09T09:43:08.515Z,1025.02
2017-02-09T09:44:19.916Z,1025.05
2017-02-09T09:45:31.329Z,1025.06
2017-02-09T09:46:43.131Z,1025.06
2017-02-09T09:47:54.538Z,1025.05
2017-02-09T09:49:05.980Z,1025.05
2017-02-09T09:50:17.383Z,1025.04
2017-02-09T09:51:28.784Z,1025.02
2017-02-09T09:52:40.190Z,1025.06
2017-02-09T09:53:51.800Z,1025.06
2017-02-09T09:55:03.207Z,1025.07
2017-02-09T09:56:14.605Z,1025.02
2017-02-09T09:57:26.215Z,1025.01
2017-02-09T09:58:37.819Z,1025.04
2017-02-09T09:59:49.626Z,1025
2017-02-09T10:01:01.277Z,1024.99
2017-02-09T10:02:12.683Z,1025.03
2017-02-09T10:03:24.090Z,1025
2017-02-09T10:04:35.531Z,1025.03
2017-02-09T10:05:46.948Z,1024.99
2017-02-09T10:06:58.350Z,1025.01
2017-02-09T10:08:09.754Z,1025.02
2017-02-09T10:09:21.156Z,1025.01
2017-02-09T10:10:32.617Z,1025.07
2017-02-09T10:11:44.225Z,1025
2017-02-09T10:12:55.827Z,1025.08
2017-02-09T10:14:07.230Z,1025.04
2017-02-09T10:15:18.629Z,1025.06
2017-02-09T10:16:30.231Z,1025.02
2017-02-09T10:17:41.633Z,1024.99
2017-02-09T10:18:53.033Z,1024.97
2017-02-09T10:20:04.434Z,1024.98
2017-02-09T10:21:15.888Z,1025.05
2017-02-09T10:22:27.289Z,1024.96
2017-02-09T10:23:38.694Z,1024.99
2017-02-09T10:24:50.099Z,1024.95
2017-02-09T10:26:01.710Z,1024.97
2017-02-09T10:27:13.105Z,1024.97
2017-02-09T10:28:24.512Z,1024.94
2017-02-09T10:29:35.922Z,1024.94
2017-02-09T10:30:47.328Z,1025
2017-02-09T10:31:58.976Z,1025.01
2017-02-09T10:33:10.382Z,1024.98
2017-02-09T10:34:21.785Z,1025
2017-02-09T10:35:33.185Z,1025.03
2017-02-09T10:36:44.587Z,1024.98
2017-02-09T10:37:56.049Z,1025.03
2017-02-09T10:39:07.459Z,1024.99
2017-02-09T10:40:19.072Z,1024.98
2017-02-09T10:41:30.469Z,1024.98
2017-02-09T10:42:42.085Z,1024.99
2017-02-09T10:43:53.484Z,1024.96
2017-02-09T10:45:04.886Z,1024.94
2017-02-09T10:46:16.502Z,1024.99
2017-02-09T10:47:27.904Z,1024.99
2017-02-09T10:48:39.302Z,1024.94
2017-02-09T10:49:50.755Z,1024.97
2017-02-09T10:51:02.153Z,1025.02
2017-02-09T10:52:13.760Z,1025.01
2017-02-09T10:53:25.163Z,1024.97
2017-02-09T10:54:36.571Z,1024.97
2017-02-09T10:55:47.977Z,1024.92
2017-02-09T10:56:59.380Z,1024.9
2017-02-09T10:58:10.791Z,1024.93
2017-02-09T10:59:22.437Z,1024.94
2017-02-09T11:00:33.839Z,1024.92
2017-02-09T11:01:45.249Z,1024.88
2017-02-09T11:02:56.649Z,1024.92
2017-02-09T11:04:08.053Z,1024.91
2017-02-09T11:05:19.689Z,1024.91
2017-02-09T11:06:31.084Z,1024.92
2017-02-09T11:07:42.693Z,1024.91
2017-02-09T11:08:54.293Z,1024.91
2017-02-09T11:10:05.746Z,1024.94
2017-02-09T11:11:17.145Z,1024.97
2017-02-09T11:12:28.550Z,1024.97
2017-02-09T11:13:39.946Z,1024.95
2017-02-09T11:14:51.352Z,1024.95
2017-02-09T11:16:02.745Z,1024.94
2017-02-09T11:17:14.145Z,1024.98
2017-02-09T11:18:25.551Z,1024.93
2017-02-09T11:19:36.963Z,1024.96
2017-02-09T11:20:48.412Z,1024.92
2017-02-09T11:22:00.016Z,1024.93
2017-02-09T11:23:11.420Z,1024.9
2017-02-09T11:24:22.825Z,1024.91
2017-02-09T11:25:34.231Z,1024.86
2017-02-09T11:26:45.838Z,1024.89
2017-02-09T11:27:57.237Z,1024.92
2017-02-09T11:29:08.642Z,1024.88
2017-02-09T11:30:20.043Z,1024.9
2017-02-09T11:31:31.496Z,1024.87
2017-02-09T11:32:43.106Z,1024.86
2017-02-09T11:33:54.504Z,1024.91
2017-02-09T11:35:06.114Z,1024.87
2017-02-09T11:36:17.712Z,1024.84
2017-02-09T11:37:29.117Z,1024.85
2017-02-09T11:38:40.718Z,1024.81
2017-02-09T11:39:52.115Z,1024.82
2017-02-09T11:41:03.718Z,1024.76
2017-02-09T11:42:15.123Z,1024.77
2017-02-09T11:43:26.583Z,1024.72
2017-02-09T11:44:37.988Z,1024.69
2017-02-09T11:45:49.388Z,1024.73
2017-02-09T11:47:00.786Z,1024.71
2017-02-09T11:48:12.433Z,1024.71
2017-02-09T11:49:24.036Z,1024.68
2017-02-09T11:50:35.437Z,1024.67
2017-02-09T11:51:46.839Z,1024.68
2017-02-09T11:52:58.299Z,1024.65
2017-02-09T11:54:09.698Z,1024.67
2017-02-09T11:55:21.097Z,1024.63
2017-02-09T11:56:32.498Z,1024.65
2017-02-09T11:57:44.099Z,1024.58
2017-02-09T11:58:55.511Z,1024.56
2017-02-09T12:00:07.116Z,1024.52
2017-02-09T12:01:18.519Z,1024.53
2017-02-09T12:02:29.929Z,1024.52
2017-02-09T12:03:41.384Z,1024.48
2017-02-09T12:04:52.788Z,1024.49
2017-02-09T12:06:04.390Z,1024.47
2017-02-09T12:07:15.795Z,1024.48
2017-02-09T12:08:27.211Z,1024.42
2017-02-09T12:09:38.613Z,1024.42
2017-02-09T12:10:50.021Z,1024.43
2017-02-09T12:12:01.429Z,1024.43
2017-02-09T12:13:12.832Z,1024.38
2017-02-09T12:14:24.289Z,1024.38
2017-02-09T12:15:35.696Z,1024.37
2017-02-09T12:16:47.111Z,1024.38
2017-02-09T12:17:58.719Z,1024.38
2017-02-09T12:19:10.126Z,1024.4
2017-02-09T12:20:21.560Z,1024.35
2017-02-09T12:21:32.976Z,1024.35
2017-02-09T12:22:44.379Z,1024.32
2017-02-09T12:23:55.782Z,1024.31
2017-02-09T12:25:07.189Z,1024.31
2017-02-09T12:26:18.790Z,1024.34
2017-02-09T12:27:30.398Z,1024.27
2017-02-09T12:28:42.015Z,1024.25
2017-02-09T12:29:53.419Z,1024.25
2017-02-09T12:31:04.827Z,1024.25
2017-02-09T12:32:16.284Z,1024.2
2017-02-09T12:33:27.682Z,1024.23
2017-02-09T12:34:39.092Z,1024.19
2017-02-09T12:35:50.494Z,1024.21
2017-02-09T12:37:01.896Z,1024.14
2017-02-09T12:38:13.308Z,1024.16
2017-02-09T12:39:24.708Z,1024.16
2017-02-09T12:40:36.122Z,1024.16
2017-02-09T12:41:47.779Z,1024.14
2017-02-09T12:42:59.176Z,1024.14
2017-02-09T12:44:10.586Z,1024.09
2017-02-09T12:45:21.991Z,1024.05
2017-02-09T12:46:33.391Z,1024.14
2017-02-09T12:47:44.796Z,1024.09
2017-02-09T12:48:56.402Z,1024.05
2017-02-09T12:50:07.807Z,1024.12
2017-02-09T12:51:19.216Z,1024.08
2017-02-09T12:52:30.674Z,1024.08
2017-02-09T12:53:42.086Z,1024.08
2017-02-09T12:54:53.490Z,1024.02
2017-02-09T12:56:04.886Z,1024.01
2017-02-09T12:57:16.489Z,1024
2017-02-09T12:58:27.893Z,1024
2017-02-09T12:59:39.300Z,1023.98
2017-02-09T13:00:50.714Z,1024
2017-02-09T13:02:02.119Z,1023.98
2017-02-09T13:03:13.572Z,1024.02
2017-02-09T13:04:24.976Z,1023.97
2017-02-09T13:05:36.394Z,1023.99
2017-02-09T13:06:47.796Z,1024
2017-02-09T13:07:59.196Z,1023.92
2017-02-09T13:09:10.601Z,1023.93
2017-02-09T13:10:22.011Z,1023.99
2017-02-09T13:11:33.621Z,1023.94
2017-02-09T13:12:45.025Z,1023.98
2017-02-09T13:13:56.432Z,1023.96
2017-02-09T13:15:07.888Z,1023.94
2017-02-09T13:16:19.286Z,1023.91
2017-02-09T13:17:30.697Z,1023.91
2017-02-09T13:18:42.099Z,1023.91
2017-02-09T13:19:53.539Z,1023.9
2017-02-09T13:21:04.939Z,1023.86
2017-02-09T13:22:16.350Z,1023.84
2017-02-09T13:23:27.767Z,1023.88
2017-02-09T13:24:39.220Z,1023.88
2017-02-09T13:25:50.627Z,1023.81
2017-02-09T13:27:02.038Z,1023.83
2017-02-09T13:28:13.449Z,1023.87
2017-02-09T13:29:25.058Z,1023.81
2017-02-09T13:30:36.465Z,1023.78
2017-02-09T13:31:48.065Z,1023.78
2017-02-09T13:32:59.671Z,1023.77
2017-02-09T13:34:11.076Z,1023.73
2017-02-09T13:35:22.534Z,1023.78
2017-02-09T13:36:33.936Z,1023.68
2017-02-09T13:37:45.342Z,1023.68
2017-02-09T13:38:56.752Z,1023.71
2017-02-09T13:40:08.160Z,1023.71
2017-02-09T13:41:19.561Z,1023.73
2017-02-09T13:42:30.972Z,1023.7
2017-02-09T13:43:42.380Z,1023.67
2017-02-09T13:44:53.784Z,1023.67
2017-02-09T13:46:05.238Z,1023.63
2017-02-09T13:47:16.640Z,1023.65
2017-02-09T13:48:28.039Z,1023.61
2017-02-09T13:49:39.433Z,1023.65
2017-02-09T13:50:50.837Z,1023.64
2017-02-09T13:52:02.285Z,1023.67
2017-02-09T13:53:13.890Z,1023.69
2017-02-09T13:54:25.489Z,1023.58
2017-02-09T13:55:36.894Z,1023.65
2017-02-09T13:56:48.499Z,1023.59
2017-02-09T13:57:59.955Z,1023.65
2017-02-09T13:59:11.357Z,1023.61
2017-02-09T14:00:22.764Z,1023.59
2017-02-09T14:01:34.165Z,1023.58
2017-02-09T14:02:45.772Z,1023.63
2017-02-09T14:03:57.430Z,1023.58
2017-02-09T14:05:08.839Z,1023.53
2017-02-09T14:06:20.241Z,1023.53
2017-02-09T14:07:31.644Z,1023.57
2017-02-09T14:08:43.041Z,1023.52
2017-02-09T14:09:54.444Z,1023.56
2017-02-09T14:11:05.843Z,1023.51
2017-02-09T14:12:17.241Z,1023.52
2017-02-09T14:13:28.693Z,1023.51
2017-02-09T14:14:40.098Z,1023.5
2017-02-09T14:15:51.501Z,1023.5
2017-02-09T14:17:02.910Z,1023.55
2017-02-09T14:18:14.310Z,1023.49
2017-02-09T14:19:25.715Z,1023.5
2017-02-09T14:20:37.119Z,1023.46
2017-02-09T14:21:48.522Z,1023.45
2017-02-09T14:22:59.923Z,1023.49
2017-02-09T14:24:11.377Z,1023.48
2017-02-09T14:25:22.976Z,1023.41
2017-02-09T14:26:34.385Z,1023.42
2017-02-09T14:27:45.792Z,1023.41